.
WxDataArchive / Data Records for 2008-12-12
2008-12-11 December 2008 2008-12-13

Data Records for Friday, 12 December 2008

Time	Temp	Chill	HIndex	Humid	Dewpt	 Wind 	HiWind	WindDir	Rain 	Barom 
-----	----	-----	------	-----	-----	------	------	-------	-----	----- 
00:00	27.8	27.8	27.8	81	22.7	1	5	270	0.00	29.872 
00:05	27.8	27.8	27.8	81	22.7	1	4	292	0.00	29.870 
00:10	27.6	27.6	27.6	81	22.5	1	3	315	0.00	29.869 
00:15	27.5	27.5	27.5	81	22.4	0	3	315	0.00	29.870 
00:20	27.3	27.3	27.3	81	22.3	0	3	315	0.00	29.869 
00:25	27.3	27.3	27.3	82	22.5	0	3	315	0.00	29.871 
00:30	27.3	27.3	27.3	82	22.5	0	3	315	0.00	29.874 
00:35	27.2	27.2	27.2	82	22.4	0	2	315	0.00	29.873 
00:40	27.2	27.2	27.2	83	22.7	0	3	292	0.00	29.872 
00:45	27.2	27.2	27.2	83	22.7	0	3	292	0.00	29.873 
00:50	27.3	27.3	27.3	83	22.8	1	3	315	0.00	29.872 
00:55	27.3	27.3	27.3	83	22.8	0	2	292	0.00	29.872 
01:00	27.5	27.5	27.5	83	23.0	1	3	292	0.00	29.869 
01:05	27.6	27.6	27.6	83	23.1	1	2	292	0.00	29.867 
01:10	27.6	27.6	27.6	83	23.1	0	2	315	0.00	29.866 
01:15	27.5	27.5	27.5	83	23.0	0	2	315	0.00	29.867 
01:20	27.3	27.3	27.3	83	22.8	0	1	315	0.00	29.867 
01:25	27.3	27.3	27.3	83	22.8	1	3	338	0.00	29.867 
01:30	27.3	27.3	27.3	83	22.8	1	3	338	0.00	29.865 
01:35	27.5	27.5	27.5	83	23.0	1	2	315	0.00	29.861 
01:40	27.5	27.5	27.5	82	22.7	1	4	315	0.00	29.857 
01:45	27.5	27.5	27.5	82	22.7	1	2	270	0.00	29.859 
01:50	27.6	27.6	27.6	81	22.5	1	2	292	0.00	29.858 
01:55	27.6	27.6	27.6	81	22.5	1	3	270	0.00	29.856 
02:00	27.8	27.8	27.8	79	22.2	1	2	315	0.00	29.858 
02:05	27.9	27.9	27.9	78	21.9	1	3	270	0.00	29.863 
02:10	28.1	28.1	28.1	77	21.8	1	4	292	0.00	29.865 
02:15	28.1	28.1	28.1	76	21.5	1	4	292	0.00	29.867 
02:20	28.2	28.2	28.2	75	21.3	1	3	315	0.00	29.866 
02:25	28.2	28.2	28.2	75	21.3	1	4	292	0.00	29.868 
02:30	28.4	28.4	28.4	74	21.2	1	5	338	0.00	29.873 
02:35	28.4	28.4	28.4	73	20.9	2	5	315	0.00	29.873 
02:40	28.5	28.5	28.5	72	20.6	2	6	338	0.00	29.881 
02:45	28.5	28.5	28.5	71	20.3	2	4	270	0.00	29.883 
02:50	28.4	28.4	28.4	71	20.2	1	5	315	0.00	29.885 
02:55	28.2	28.2	28.2	71	20.0	1	5	315	0.00	29.887 
03:00	28.2	28.2	28.2	70	19.7	2	7	270	0.00	29.888 
03:05	28.2	28.2	28.2	70	19.7	1	5	270	0.00	29.891 
03:10	28.2	28.2	28.2	70	19.7	1	6	338	0.00	29.892 
03:15	28.2	28.2	28.2	69	19.4	1	7	292	0.00	29.897 
03:20	28.1	28.1	28.1	69	19.3	1	5	292	0.00	29.897 
03:25	28.1	28.1	28.1	69	19.3	1	4	315	0.00	29.897 
03:30	28.1	28.1	28.1	70	19.6	1	4	338	0.00	29.899 
03:35	27.9	27.9	27.9	70	19.4	0	2	315	0.00	29.899 
03:40	27.9	27.9	27.9	70	19.4	1	4	292	0.00	29.899 
03:45	27.8	27.8	27.8	70	19.3	1	3	270	0.00	29.900 
03:50	27.6	27.6	27.6	71	19.4	0	2	292	0.00	29.900 
03:55	27.6	27.6	27.6	71	19.4	0	2	315	0.00	29.900 
04:00	27.6	27.6	27.6	71	19.4	0	3	270	0.00	29.901 
04:05	27.8	27.8	27.8	71	19.6	1	3	270	0.00	29.901 
04:10	27.8	27.8	27.8	71	19.6	0	3	22	0.00	29.901 
04:15	28.1	28.1	28.1	70	19.6	2	4	315	0.00	29.904 
04:20	28.2	28.2	28.2	71	20.0	0	2	270	0.00	29.904 
04:25	28.4	28.4	28.4	71	20.2	1	3	270	0.00	29.904 
04:30	28.4	28.4	28.4	71	20.2	1	3	270	0.00	29.912 
04:35	28.5	28.5	28.5	72	20.6	0	1	315	0.00	29.912 
04:40	28.5	28.5	28.5	72	20.6	0	2	315	0.00	29.912 
04:45	28.4	28.4	28.4	72	20.5	0	2	225	0.00	29.915 
04:50	28.4	28.4	28.4	73	20.9	0	2	225	0.00	29.915 
04:55	28.4	28.4	28.4	73	20.9	0	1	225	0.00	29.915 
05:00	28.4	28.4	28.4	73	20.9	0	1	225	0.00	29.911 
05:05	28.4	28.4	28.4	73	20.9	0	1	225	0.00	29.911 
05:10	28.4	28.4	28.4	73	20.9	0	1	225	0.00	29.911 
05:15	28.4	28.4	28.4	73	20.9	0	1	225	0.00	29.917 
05:20	28.4	28.4	28.4	73	20.9	0	1	225	0.00	29.917 
05:25	28.4	28.4	28.4	73	20.9	0	1	225	0.00	29.917 
05:30	28.4	28.4	28.4	74	21.2	0	1	225	0.00	29.919 
05:35	28.4	28.4	28.4	74	21.2	0	1	225	0.00	29.919 
05:40	28.4	28.4	28.4	74	21.2	0	2	225	0.00	29.919 
05:45	28.5	28.5	28.5	74	21.3	1	2	225	0.00	29.922 
05:50	28.7	28.7	28.7	74	21.5	1	2	225	0.00	29.922 
05:55	28.7	28.7	28.7	74	21.5	1	2	225	0.00	29.922 
06:00	28.7	28.7	28.7	74	21.5	1	2	225	0.00	29.933 
06:05	28.7	28.7	28.7	74	21.5	1	3	248	0.00	29.933 
06:10	28.8	28.8	28.8	73	21.3	1	4	270	0.00	29.933 
06:15	28.8	28.8	28.8	73	21.3	1	5	248	0.00	29.946 
06:20	28.7	28.7	28.7	72	20.8	2	7	292	0.00	29.946 
06:25	28.8	28.8	28.8	71	20.6	2	5	292	0.00	29.946 
06:30	28.7	28.7	28.7	72	20.8	1	4	270	0.00	29.949 
06:35	28.7	28.7	28.7	70	20.2	2	5	315	0.00	29.949 
06:40	28.7	28.7	28.7	71	20.5	1	7	270	0.00	29.949 
06:45	28.5	28.5	28.5	71	20.3	1	5	270	0.00	29.952 
06:50	28.5	28.5	28.5	71	20.3	1	5	270	0.00	29.952 
06:55	28.4	28.4	28.4	70	19.9	1	4	315	0.00	29.952 
07:00	28.4	28.4	28.4	69	19.5	1	5	270	0.00	29.956 
07:05	28.2	28.2	28.2	68	19.0	1	3	292	0.00	29.956 
07:10	28.2	28.2	28.2	69	19.4	1	3	315	0.00	29.956 
07:15	28.1	28.1	28.1	69	19.3	0	1	315	0.00	29.962 
07:20	28.1	28.1	28.1	69	19.3	1	3	248	0.00	29.962 
07:25	27.9	27.9	27.9	69	19.1	0	2	292	0.00	29.962 
07:30	27.9	27.9	27.9	68	18.7	1	4	248	0.00	29.967 
07:35	27.9	27.9	27.9	67	18.4	1	3	270	0.00	29.967 
07:40	27.8	27.8	27.8	66	17.9	2	5	315	0.00	29.967 
07:45	27.8	27.8	27.8	66	17.9	0	3	248	0.00	29.971 
07:50	27.8	27.8	27.8	66	17.9	1	4	315	0.00	29.971 
07:55	27.6	27.6	27.6	66	17.8	0	2	292	0.00	29.971 
08:00	27.6	27.6	27.6	67	18.1	0	3	292	0.00	29.973 
08:05	27.6	27.6	27.6	67	18.1	0	2	315	0.00	29.973 
08:10	27.6	27.6	27.6	68	18.4	0	2	315	0.00	29.973 
08:15	27.5	27.5	27.5	68	18.3	1	3	270	0.00	29.982 
08:20	27.3	27.3	27.3	68	18.2	2	5	248	0.00	29.982 
08:25	27.2	27.2	27.2	68	18.1	1	4	270	0.00	29.982 
08:30	27.0	27.0	27.0	69	18.2	1	4	292	0.00	29.987 
08:35	26.9	26.9	26.9	69	18.1	2	6	248	0.00	29.987 
08:40	26.6	26.6	26.6	70	18.2	1	4	292	0.00	29.987 
08:45	26.4	26.4	26.4	72	18.6	1	5	270	0.00	29.994 
08:50	26.1	26.1	26.1	74	19.0	1	3	248	0.00	29.994 
08:55	25.8	25.8	25.8	76	19.3	1	3	248	0.00	29.994 
09:00	25.6	25.6	25.6	77	19.4	1	3	315	0.00	30.001 
09:05	25.4	25.4	25.4	77	19.2	1	5	292	0.00	30.001 
09:10	25.3	25.3	25.3	78	19.4	1	4	292	0.00	30.001 
09:15	25.1	25.1	25.1	78	19.2	1	5	248	0.00	30.004 
09:20	24.8	24.8	24.8	79	19.2	1	4	338	0.00	30.004 
09:25	24.8	24.8	24.8	80	19.5	1	4	270	0.00	30.004 
09:30	24.7	24.7	24.7	80	19.4	1	4	315	0.00	30.011 
09:35	24.7	24.7	24.7	81	19.7	1	4	292	0.00	30.011 
09:40	24.5	24.5	24.5	80	19.2	1	6	248	0.00	30.011 
09:45	24.7	24.7	24.7	80	19.4	1	4	315	0.00	30.016 
09:50	24.8	24.8	24.8	79	19.2	1	3	248	0.00	30.016 
09:55	24.8	24.8	24.8	78	18.9	1	2	270	0.00	30.016 
10:00	25.1	25.1	25.1	77	18.9	1	4	270	0.00	30.021 
10:05	25.4	25.4	25.4	76	18.9	1	4	270	0.00	30.021 
10:10	25.7	25.7	25.7	73	18.3	3	7	270	0.00	30.021 
10:15	26.0	26.0	26.0	72	18.2	2	5	270	0.00	30.026 
10:20	26.6	26.6	26.6	72	18.8	2	4	248	0.00	30.026 
10:25	26.6	26.6	26.6	67	17.1	3	7	270	0.00	30.026 
10:30	26.4	26.4	26.4	67	17.0	2	4	270	0.00	30.028 
10:35	26.4	26.4	26.4	65	16.3	2	5	270	0.00	30.028 
10:40	26.3	26.3	26.3	65	16.2	3	6	270	0.00	30.028 
10:45	26.3	26.3	26.3	65	16.2	3	7	270	0.00	30.028 
10:50	26.0	26.0	26.0	66	16.2	3	5	270	0.00	30.028 
10:55	25.4	25.4	25.4	66	15.7	2	5	270	0.00	30.028 
11:00	25.4	25.4	25.4	66	15.7	2	5	270	0.00	30.034 
11:05	25.7	25.7	25.7	65	15.6	2	5	248	0.00	30.034 
11:10	26.1	26.1	26.1	64	15.6	3	6	270	0.00	30.034 
11:15	26.3	26.3	26.3	63	15.4	3	9	270	0.00	30.032 
11:20	26.4	26.4	26.4	62	15.2	3	6	270	0.00	30.032 
11:25	26.4	26.4	26.4	63	15.5	2	5	270	0.00	30.032 
11:30	26.4	26.4	26.4	64	15.9	2	5	270	0.00	30.031 
11:35	26.1	26.1	26.1	62	14.9	2	7	270	0.00	30.031 
11:40	25.7	25.7	25.7	62	14.5	2	5	315	0.00	30.031 
11:45	26.1	26.1	26.1	62	14.9	3	10	270	0.00	30.032 
11:50	26.7	26.7	26.7	61	15.1	2	9	248	0.00	30.032 
11:55	26.6	26.6	26.6	60	14.6	3	6	270	0.00	30.032 
12:00	26.1	26.1	26.1	62	14.9	3	6	270	0.00	30.032 
12:05	25.8	25.8	25.8	62	14.6	3	6	270	0.00	30.032 
12:10	25.6	20.7	25.6	64	15.1	4	7	270	0.00	30.032 
12:15	25.3	25.3	25.3	66	15.6	2	10	338	0.00	30.034 
12:20	25.4	25.4	25.4	68	16.3	3	5	270	0.00	30.034 
12:25	25.6	25.6	25.6	69	16.9	2	4	292	0.00	30.034 
12:30	25.6	25.6	25.6	67	16.2	3	7	270	0.00	30.033 
12:35	25.7	25.7	25.7	63	14.9	3	6	270	0.00	30.033 
12:40	25.8	25.8	25.8	62	14.6	2	6	315	0.00	30.033 
12:45	25.7	25.7	25.7	63	14.9	2	10	270	0.00	30.032 
12:50	25.7	25.7	25.7	62	14.5	3	7	270	0.00	30.032 
12:55	25.7	25.7	25.7	62	14.5	3	9	270	0.00	30.032 
13:00	26.1	26.1	26.1	63	15.3	3	11	270	0.00	30.033 
13:05	26.6	26.6	26.6	61	15.0	3	7	270	0.00	30.033 
13:10	26.9	26.9	26.9	61	15.3	3	10	248	0.00	30.033 
13:15	26.9	26.9	26.9	61	15.3	3	7	270	0.00	30.034 
13:20	26.4	26.4	26.4	62	15.2	3	10	270	0.00	30.034 
13:25	26.0	26.0	26.0	64	15.5	3	9	270	0.00	30.034 
13:30	25.7	25.7	25.7	64	15.2	3	6	270	0.00	30.043 
13:35	25.6	25.6	25.6	66	15.8	2	4	270	0.00	30.043 
13:40	25.8	25.8	25.8	65	15.7	2	5	270	0.00	30.043 
13:45	26.0	26.0	26.0	63	15.2	2	4	270	0.00	30.048 
13:50	26.3	26.3	26.3	63	15.4	2	4	270	0.00	30.048 
13:55	26.3	26.3	26.3	63	15.4	3	7	270	0.00	30.048 
14:00	25.8	20.9	25.8	63	15.0	4	9	270	0.00	30.055 
14:05	25.6	25.6	25.6	63	14.8	3	6	270	0.00	30.055 
14:10	25.4	25.4	25.4	64	14.9	2	7	270	0.00	30.055 
14:15	25.7	25.7	25.7	65	15.6	3	7	270	0.00	30.060 
14:20	25.3	25.3	25.3	65	15.2	3	7	270	0.00	30.060 
14:25	25.7	25.7	25.7	65	15.6	2	6	270	0.00	30.060 
14:30	25.4	25.4	25.4	63	14.6	3	6	270	0.00	30.067 
14:35	25.0	25.0	25.0	64	14.6	2	9	338	0.00	30.067 
14:40	24.7	24.7	24.7	66	15.0	2	5	270	0.00	30.067 
14:45	24.4	24.4	24.4	66	14.7	3	7	270	0.00	30.073 
14:50	24.2	24.2	24.2	66	14.5	3	5	270	0.00	30.073 
14:55	24.2	24.2	24.2	66	14.5	3	7	270	0.00	30.073 
15:00	24.2	24.2	24.2	66	14.5	3	7	270	0.00	30.080 
15:05	24.2	24.2	24.2	67	14.8	3	6	270	0.00	30.080 
15:10	23.9	23.9	23.9	67	14.6	3	8	270	0.00	30.080 
15:15	24.1	24.1	24.1	68	15.1	2	4	270	0.00	30.084 
15:20	24.1	24.1	24.1	68	15.1	2	8	270	0.00	30.084 
15:25	23.8	23.8	23.8	68	14.8	3	7	270	0.00	30.084 
15:30	23.8	23.8	23.8	68	14.8	2	7	270	0.00	30.091 
15:35	23.6	23.6	23.6	69	14.9	3	5	270	0.00	30.091 
15:40	23.5	23.5	23.5	69	14.9	2	6	270	0.00	30.091 
15:45	23.5	23.5	23.5	69	14.9	3	7	270	0.00	30.096 
15:50	23.3	23.3	23.3	68	14.3	2	5	270	0.00	30.096 
15:55	23.5	23.5	23.5	68	14.5	2	4	248	0.00	30.096 
16:00	23.5	23.5	23.5	68	14.5	2	9	270	0.00	30.103 
16:05	23.5	23.5	23.5	67	14.2	2	5	248	0.00	30.103 
16:10	23.5	23.5	23.5	67	14.2	2	7	270	0.00	30.103 
16:15	23.5	23.5	23.5	66	13.8	2	5	270	0.00	30.113 
16:20	23.5	23.5	23.5	65	13.5	2	6	248	0.00	30.113 
16:25	23.5	23.5	23.5	65	13.5	2	7	270	0.00	30.113 
16:30	23.3	23.3	23.3	65	13.3	2	5	270	0.00	30.125 
16:35	23.3	23.3	23.3	65	13.3	1	3	270	0.00	30.125 
16:40	23.2	23.2	23.2	65	13.2	2	5	270	0.00	30.125 
16:45	23.0	23.0	23.0	65	13.0	1	4	292	0.00	30.130 
16:50	22.9	22.9	22.9	65	12.9	1	3	270	0.00	30.130 
16:55	22.7	22.7	22.7	65	12.7	2	5	270	0.00	30.130 
17:00	22.5	22.5	22.5	65	12.5	2	6	248	0.00	30.131 
17:05	22.4	22.4	22.4	65	12.4	2	6	270	0.00	30.131 
17:10	22.4	22.4	22.4	65	12.4	2	5	270	0.00	30.131 
17:15	22.2	22.2	22.2	65	12.3	1	4	270	0.00	30.131 
17:20	22.2	22.2	22.2	65	12.3	1	3	270	0.00	30.131 
17:25	22.1	22.1	22.1	66	12.5	1	4	270	0.00	30.131 
17:30	22.1	22.1	22.1	66	12.5	2	5	248	0.00	30.134 
17:35	22.1	22.1	22.1	65	12.2	2	5	270	0.00	30.134 
17:40	21.9	21.9	21.9	66	12.3	1	2	270	0.00	30.134 
17:45	21.8	21.8	21.8	66	12.2	1	3	248	0.00	30.145 
17:50	21.8	21.8	21.8	66	12.2	1	3	248	0.00	30.145 
17:55	21.6	21.6	21.6	66	12.0	1	3	248	0.00	30.145 
18:00	21.4	21.4	21.4	66	11.8	1	5	248	0.00	30.152 
18:05	21.3	21.3	21.3	66	11.7	1	3	270	0.00	30.152 
18:10	21.1	21.1	21.1	66	11.5	1	4	248	0.00	30.152 
18:15	21.1	21.1	21.1	66	11.5	1	3	248	0.00	30.161 
18:20	21.0	21.0	21.0	67	11.8	0	3	248	0.00	30.161 
18:25	20.8	20.8	20.8	67	11.6	0	1	248	0.00	30.161 
18:30	20.6	20.6	20.6	67	11.4	0	1	248	0.00	30.165 
18:35	20.5	20.5	20.5	68	11.6	1	3	248	0.00	30.165 
18:40	20.3	20.3	20.3	68	11.5	1	4	248	0.00	30.165 
18:45	20.3	20.3	20.3	68	11.5	1	4	248	0.00	30.163 
18:50	20.2	20.2	20.2	68	11.4	0	2	248	0.00	30.163 
18:55	20.0	20.0	20.0	68	11.2	0	3	248	0.00	30.163 
19:00	19.9	19.9	19.9	68	11.1	0	2	248	0.00	30.172 
19:05	19.9	19.9	19.9	69	11.4	1	3	248	0.00	30.172 
19:10	19.7	19.7	19.7	69	11.2	0	3	248	0.00	30.172 
19:15	19.5	19.5	19.5	69	11.0	0	2	248	0.00	30.179 
19:20	19.5	19.5	19.5	69	11.0	0	2	248	0.00	30.179 
19:25	19.4	19.4	19.4	69	10.9	0	1	248	0.00	30.179 
19:30	19.4	19.4	19.4	69	10.9	0	3	248	0.00	30.191 
19:35	19.4	19.4	19.4	69	10.9	1	3	270	0.00	30.191 
19:40	19.2	19.2	19.2	69	10.7	1	3	248	0.00	30.191 
19:45	19.2	19.2	19.2	69	10.7	0	2	248	0.00	30.192 
19:50	19.2	19.2	19.2	69	10.7	0	2	248	0.00	30.192 
19:55	19.1	19.1	19.1	69	10.6	0	2	248	0.00	30.192 
20:00	18.9	18.9	18.9	69	10.4	1	4	270	0.00	30.185 
20:05	18.8	18.8	18.8	69	10.3	0	1	270	0.00	30.185 
20:10	18.6	18.6	18.6	69	10.2	0	3	248	0.00	30.185 
20:15	18.6	18.6	18.6	69	10.2	0	1	248	0.00	30.182 
20:20	18.4	18.4	18.4	69	10.0	0	1	248	0.00	30.182 
20:25	18.3	18.3	18.3	69	9.9	0	1	248	0.00	30.182 
20:30	18.1	18.1	18.1	69	9.7	0	1	248	0.00	30.194 
20:35	18.0	18.0	18.0	69	9.6	0	1	248	0.00	30.194 
20:40	17.8	17.8	17.8	70	9.7	0	1	248	0.00	30.194 
20:45	17.7	17.7	17.7	70	9.6	0	1	248	0.00	30.188 
20:50	17.5	17.5	17.5	70	9.4	0	2	248	0.00	30.188 
20:55	17.5	17.5	17.5	70	9.4	0	2	248	0.00	30.188 
21:00	17.3	17.3	17.3	70	9.2	0	2	248	0.00	30.201 
21:05	17.3	17.3	17.3	70	9.2	0	3	248	0.00	30.201 
21:10	17.2	17.2	17.2	71	9.4	1	3	248	0.00	30.201 
21:15	17.2	17.2	17.2	70	9.1	1	3	248	0.00	30.203 
21:20	17.2	17.2	17.2	70	9.1	0	3	248	0.00	30.203 
21:25	17.2	17.2	17.2	70	9.1	0	3	248	0.00	30.203 
21:30	17.0	17.0	17.0	70	8.9	1	3	248	0.00	30.207 
21:35	17.0	17.0	17.0	71	9.2	1	4	248	0.00	30.207 
21:40	17.0	17.0	17.0	71	9.2	1	3	248	0.00	30.207 
21:45	17.0	17.0	17.0	71	9.2	1	3	248	0.00	30.200 
21:50	16.9	16.9	16.9	71	9.2	0	1	248	0.00	30.200 
21:55	16.9	16.9	16.9	71	9.2	0	3	248	0.00	30.200 
22:00	16.7	16.7	16.7	71	9.0	0	2	248	0.00	30.213 
22:05	16.5	16.5	16.5	71	8.8	0	2	248	0.00	30.213 
22:10	16.5	16.5	16.5	71	8.8	0	2	248	0.00	30.213 
22:15	16.5	16.5	16.5	71	8.8	1	2	270	0.00	30.215 
22:20	16.5	16.5	16.5	71	8.8	1	4	248	0.00	30.215 
22:25	16.5	16.5	16.5	71	8.8	1	3	248	0.00	30.215 
22:30	16.5	16.5	16.5	71	8.8	1	2	248	0.00	30.216 
22:35	16.4	16.4	16.4	70	8.4	0	2	248	0.00	30.216 
22:40	16.4	16.4	16.4	70	8.4	1	3	248	0.00	30.216 
22:45	16.4	16.4	16.4	70	8.4	0	2	248	0.00	30.207 
22:50	16.4	16.4	16.4	70	8.4	0	2	248	0.00	30.207 
22:55	16.2	16.2	16.2	70	8.2	0	1	248	0.00	30.207 
23:00	16.1	16.1	16.1	70	8.1	0	1	248	0.00	30.205 
23:05	15.9	15.9	15.9	70	7.9	0	1	248	0.00	30.205 
23:10	15.9	15.9	15.9	70	7.9	0	1	248	0.00	30.205 
23:15	15.7	15.7	15.7	71	8.0	0	2	248	0.00	30.212 
23:20	15.7	15.7	15.7	71	8.0	0	2	248	0.00	30.212 
23:25	15.7	15.7	15.7	71	8.0	0	1	248	0.00	30.212 
23:30	15.6	15.6	15.6	71	7.9	0	0	---	0.00	30.207 
23:35	15.4	15.4	15.4	71	7.7	0	0	---	0.00	30.207 
23:40	15.1	15.1	15.1	71	7.4	0	0	---	0.00	30.207 
23:45	14.9	14.9	14.9	72	7.5	0	0	---	0.00	30.212 
23:50	14.9	14.9	14.9	72	7.5	0	0	---	0.00	30.212 
23:55	14.8	14.8	14.8	73	7.7	0	0	---	0.00	30.212 

CoCoRaHS
IN-AL-39
A2 Web Hosting
Creative Commons License
GoDaddy
search engine by freefind advanced

loaded 2018-11-12 15:58:40 • last modified 2010-11-18 10:43:29
Privacy PolicyDisclaimer
• wx.awcolley.com is powered by PmWiki v.2002016 •
• all content (unless otherwise noted) © 2018 A W Colley